AKDT,Max TemperatureF,Mean TemperatureF,Min TemperatureF,Max Dew PointF,MeanDew PointF,Min DewpointF,Max Humidity, Mean Humidity, Min Humidity, Max Sea Level PressureIn, Mean Sea Level PressureIn, Min Sea Level PressureIn, Max VisibilityMiles, Mean VisibilityMiles, Min VisibilityMiles, Max Wind SpeedMPH, Mean Wind SpeedMPH, Max Gust SpeedMPH,PrecipitationIn, CloudCover, Events, WindDirDegrees
2013-8-1,,,,,,,,,,,,,,,,,,,,,,
2013-8-2,69,64,60,52,49,48,64,55,46,29.94,29.84,29.73,10,10,10,16,9,23,0.00,,,78
2013-8-3,69,61,53,54,49,45,94,65,40,29.89,29.77,29.69,10,10,10,15,9,26,0.02,,,114
2013-8-4,62,56,50,54,50,46,94,82,63,29.97,29.93,29.89,10,10,4,10,2,,0.08,8,,288
2013-8-5,64,58,51,55,52,48,94,82,56,29.97,29.95,29.92,10,10,8,8,1,,0.00,7,,325
2013-8-6,64,60,55,48,47,46,77,62,52,29.93,29.87,29.83,10,10,7,21,9,29,0.00,4,,82
2013-8-7,66,60,55,52,48,46,88,66,49,29.83,29.76,29.70,10,10,10,20,7,23,0.00,6,,78
2013-8-8,57,54,51,48,47,45,88,76,63,29.81,29.75,29.69,10,10,9,13,6,,0.00,8,,306
2013-8-9,60,55,50,54,49,45,94,84,68,29.79,29.69,29.65,10,10,9,10,4,,0.00,8,,48
2013-8-10,60,54,48,50,48,46,94,79,59,30.00,29.86,29.75,10,10,0,12,3,,0.00,6,,267
2013-8-11,55,52,48,54,50,45,94,91,82,30.01,29.99,29.97,10,8,3,6,2,,0.08,8,,360
2013-8-12,64,60,55,57,55,54,94,90,77,30.03,30.01,29.98,10,9,2,6,3,,0.02,8,,25
2013-8-13,57,55,53,55,51,48,94,86,72,30.02,30.00,29.97,10,8,0,13,3,,0.00,8,,237
2013-8-14,60,52,44,48,45,41,93,74,55,30.03,29.97,29.90,10,10,10,9,3,,0.00,5,,258
2013-8-15,62,50,39,50,45,37,93,76,59,29.90,29.82,29.76,10,10,10,12,3,,0.00,3,,307
2013-8-16,57,52,46,54,49,45,94,87,72,29.76,29.68,29.60,10,10,9,7,2,,0.00,7,,52
2013-8-17,66,60,53,55,53,52,94,84,64,29.60,29.55,29.49,10,10,10,9,5,,0.00,7,,44
2013-8-18,62,56,51,55,52,50,100,84,68,29.64,29.53,29.47,10,10,4,7,2,,0.04,8,,164
2013-8-19,57,54,51,54,51,48,94,88,77,29.76,29.68,29.65,10,10,8,6,2,,0.00,8,,201
2013-8-20,59,54,50,52,49,48,94,83,72,29.84,29.81,29.76,10,10,7,13,3,17,0.05,7,,218
2013-8-21,55,53,51,52,50,46,94,87,77,29.85,29.80,29.74,10,8,2,8,4,,0.08,7,,126
2013-8-22,55,53,51,52,51,48,94,92,88,29.74,29.72,29.67,10,4,1,8,4,,0.02,7,,162
2013-8-23,66,58,50,54,50,45,94,76,49,29.67,29.58,29.51,10,10,2,12,5,,0.00,4,,242
2013-8-24,68,54,39,48,42,36,93,66,35,29.71,29.64,29.57,10,10,8,15,3,23,0.00,1,,354
2013-8-25,66,50,33,43,37,28,93,64,32,29.74,29.71,29.67,10,10,10,7,1,,0.00,0,,19
2013-8-26,64,50,35,52,42,32,93,73,49,29.75,29.73,29.70,10,10,10,12,3,,0.00,1,,359
2013-8-27,62,54,46,50,46,43,93,71,48,29.79,29.76,29.71,10,10,10,12,3,,0.00,7,,230
2013-8-28,57,54,51,50,45,43,88,71,59,29.71,29.65,29.52,10,10,8,10,5,,0.00,6,,233
2013-8-29,55,53,51,52,50,48,94,90,82,29.85,29.65,29.50,10,10,9,14,7,21,0.04,8,,42
2013-8-30,60,56,51,52,51,48,94,87,72,29.95,29.92,29.86,10,9,1,9,1,,0.00,6,,278
2013-8-31,57,50,44,52,47,43,93,83,72,29.92,29.87,29.82,10,9,2,9,2,,0.00,7,,198